Time;durP1;ratioP1;P1;durP2;ratioP2;P2;SDS_P1;SDS_P2;PMS_P1;PMS_P2;Temp;Humidity;BMP_temperature;BMP_pressure;BME280_temperature;BME280_humidity;BME280_pressure;Samples;Min_cycle;Max_cycle;Signal;HPM_P1;HPM_P2
2022/01/20 00:00:44;;;;;;;17.52;3.10;;;1.60;99.90;;;;;;5007241;28;20392;-51
2022/01/20 00:03:14;;;;;;;7.90;2.13;;;1.60;99.90;;;;;;5007954;28;20506;-52
2022/01/20 00:08:27;;;;;;;9.48;2.47;;;1.50;99.90;;;;;;5008130;28;20033;-54
2022/01/20 00:27:19;;;;;;;11.63;2.50;;;1.50;99.90;;;;;;5011688;28;20036;-56
2022/01/20 00:32:33;;;;;;;8.45;2.65;;;1.60;99.90;;;;;;5010993;28;20028;-50
2022/01/20 00:37:31;;;;;;;15.18;2.88;;;1.70;99.90;;;;;;5011088;28;20446;-56
2022/01/20 00:39:58;;;;;;;13.20;3.92;;;1.70;99.90;;;;;;5011832;28;20030;-54
2022/01/20 00:42:24;;;;;;;11.93;3.13;;;1.80;99.90;;;;;;5010659;28;20399;-54
2022/01/20 00:44:51;;;;;;;16.75;2.95;;;1.80;99.90;;;;;;5011258;28;20042;-50
2022/01/20 00:47:18;;;;;;;15.90;4.10;;;1.90;99.90;;;;;;5011415;28;20476;-54
2022/01/20 00:49:45;;;;;;;18.27;3.58;;;1.90;99.90;;;;;;5011049;28;20029;-52
2022/01/20 00:52:11;;;;;;;14.90;2.58;;;2.00;99.90;;;;;;5010302;28;20029;-58
2022/01/20 00:54:37;;;;;;;18.38;3.90;;;2.10;99.90;;;;;;5011633;28;20088;-55
2022/01/20 00:57:03;;;;;;;14.73;3.45;;;2.20;99.90;;;;;;5011173;28;20676;-54
2022/01/20 00:59:29;;;;;;;18.17;4.32;;;2.30;99.90;;;;;;5011353;28;20112;-54
2022/01/20 01:01:57;;;;;;;14.23;3.50;;;2.40;99.90;;;;;;4991607;28;20037;-55
2022/01/20 01:04:24;;;;;;;19.33;4.15;;;2.40;99.90;;;;;;5010687;28;20492;-55
2022/01/20 01:09:21;;;;;;;19.90;2.88;;;2.60;99.90;;;;;;5011362;28;20561;-56
2022/01/20 01:11:48;;;;;;;8.18;1.92;;;2.70;99.90;;;;;;5010550;28;20029;-58
2022/01/20 01:14:16;;;;;;;15.15;2.83;;;2.70;99.90;;;;;;5010836;28;20044;-52
2022/01/20 01:22:20;;;;;;;7.78;1.60;;;2.90;99.90;;;;;;5010368;28;20096;-58
2022/01/20 01:24:52;;;;;;;7.53;1.55;;;2.90;99.90;;;;;;5010850;28;20471;-54
2022/01/20 01:27:19;;;;;;;5.40;1.85;;;2.80;99.90;;;;;;5009968;28;20025;-57
2022/01/20 01:30:09;;;;;;;4.10;1.83;;;2.70;99.90;;;;;;5010456;28;20025;-52
2022/01/20 01:32:48;;;;;;;2.38;1.17;;;2.60;99.90;;;;;;5010058;28;20083;-53
2022/01/20 01:35:15;;;;;;;5.57;1.20;;;2.50;99.90;;;;;;5006412;28;20454;-54
2022/01/20 01:40:10;;;;;;;3.40;1.20;;;2.30;99.90;;;;;;5010612;28;20025;-49
2022/01/20 01:42:43;;;;;;;2.17;1.13;;;2.20;99.90;;;;;;5010130;28;20531;-50
2022/01/20 01:45:16;;;;;;;6.18;1.33;;;2.10;99.90;;;;;;5009845;28;20080;-52
2022/01/20 01:47:44;;;;;;;8.93;1.75;;;2.10;99.90;;;;;;5009859;28;20036;-58
2022/01/20 01:50:09;;;;;;;5.97;1.25;;;2.10;99.90;;;;;;5009995;28;20116;-53
2022/01/20 01:52:35;;;;;;;5.65;1.40;;;2.10;99.90;;;;;;4992335;28;20112;-52
2022/01/20 01:55:01;;;;;;;8.13;1.17;;;2.10;99.90;;;;;;5010292;28;20088;-55
2022/01/20 01:57:27;;;;;;;6.18;1.73;;;2.10;99.90;;;;;;5010037;28;20052;-60
2022/01/20 01:59:54;;;;;;;7.40;1.48;;;2.10;99.90;;;;;;5007017;28;20042;-52
2022/01/20 02:02:20;;;;;;;5.85;1.88;;;2.10;99.90;;;;;;5006738;28;20033;-52
2022/01/20 02:04:46;;;;;;;3.67;1.02;;;2.10;99.90;;;;;;5008561;28;20034;-55
2022/01/20 02:20:26;;;;;;;6.82;1.70;;;2.10;99.90;;;;;;5009019;28;20567;-55
2022/01/20 02:22:52;;;;;;;10.68;1.98;;;2.00;99.90;;;;;;5008756;28;20026;-52
2022/01/20 02:25:23;;;;;;;9.93;2.10;;;2.00;99.90;;;;;;5009445;28;20030;-54
2022/01/20 02:27:49;;;;;;;11.65;2.15;;;2.00;99.90;;;;;;5009375;28;20030;-56
2022/01/20 02:30:19;;;;;;;11.38;2.38;;;2.00;99.90;;;;;;5008442;28;20108;-55
2022/01/20 02:33:00;;;;;;;19.38;2.92;;;2.00;99.90;;;;;;5008580;28;20570;-52
2022/01/20 02:35:29;;;;;;;13.18;1.88;;;2.00;99.90;;;;;;5008457;28;20022;-54
2022/01/20 02:46:06;;;;;;;8.10;2.55;;;1.90;99.90;;;;;;5009288;28;20194;-52
2022/01/20 02:48:32;;;;;;;11.70;2.45;;;1.90;99.90;;;;;;5008580;28;20038;-58
2022/01/20 02:50:57;;;;;;;8.50;2.70;;;1.90;99.90;;;;;;4989059;28;20109;-52
2022/01/20 02:53:23;;;;;;;14.98;3.08;;;1.80;99.90;;;;;;5003255;28;20038;-52
2022/01/20 02:55:49;;;;;;;13.40;2.50;;;1.80;99.90;;;;;;5003274;28;20042;-57
2022/01/20 02:58:14;;;;;;;9.02;2.20;;;1.70;99.90;;;;;;5005856;28;20033;-54
2022/01/20 03:00:40;;;;;;;11.15;2.33;;;1.70;99.90;;;;;;5007967;28;20033;-51
2022/01/20 03:03:05;;;;;;;17.27;3.03;;;1.70;99.90;;;;;;5007401;28;20254;-52
2022/01/20 03:05:31;;;;;;;11.55;2.85;;;1.60;99.90;;;;;;4990550;28;20038;-54
2022/01/20 03:07:58;;;;;;;9.20;1.95;;;1.60;99.90;;;;;;5007505;28;20030;-54
2022/01/20 03:10:23;;;;;;;16.35;3.17;;;1.60;99.90;;;;;;5006297;28;20502;-51
2022/01/20 03:12:49;;;;;;;16.65;2.92;;;1.60;99.90;;;;;;5006615;28;20101;-52
2022/01/20 03:15:15;;;;;;;16.33;2.58;;;1.60;99.90;;;;;;5006563;28;20034;-57
2022/01/20 03:17:40;;;;;;;10.85;2.80;;;1.60;99.90;;;;;;5006108;28;20443;-52
2022/01/20 03:20:07;;;;;;;13.38;3.08;;;1.60;99.90;;;;;;5005835;28;20061;-52
2022/01/20 03:22:32;;;;;;;11.15;2.50;;;1.60;99.90;;;;;;5008998;28;20084;-50
2022/01/20 03:24:58;;;;;;;8.32;2.63;;;1.60;99.90;;;;;;5008673;28;20574;-52
2022/01/20 03:27:24;;;;;;;7.00;2.65;;;1.60;99.90;;;;;;5008893;28;20022;-52
2022/01/20 03:29:50;;;;;;;7.00;2.13;;;1.60;99.90;;;;;;5008461;28;20030;-52
2022/01/20 03:32:15;;;;;;;8.32;2.15;;;1.60;99.90;;;;;;5008125;28;20042;-56
2022/01/20 03:34:41;;;;;;;9.90;2.50;;;1.60;99.90;;;;;;5008442;28;20042;-52
2022/01/20 03:37:07;;;;;;;9.13;2.38;;;1.60;99.90;;;;;;5008300;28;20117;-52
2022/01/20 03:39:32;;;;;;;5.93;1.70;;;1.60;99.90;;;;;;5008774;28;20061;-52
2022/01/20 03:41:58;;;;;;;11.88;1.60;;;1.60;99.90;;;;;;5008426;28;20049;-52
2022/01/20 03:44:23;;;;;;;9.15;2.05;;;1.50;99.90;;;;;;5008282;28;20117;-54
2022/01/20 03:46:49;;;;;;;11.23;1.98;;;1.30;99.90;;;;;;5008397;28;20093;-51
2022/01/20 03:49:35;;;;;;;6.80;1.65;;;1.00;99.90;;;;;;5008094;28;20037;-50
2022/01/20 03:52:01;;;;;;;7.60;1.52;;;0.90;99.90;;;;;;5008379;28;20038;-49
2022/01/20 03:54:27;;;;;;;7.05;1.42;;;0.80;99.90;;;;;;5008612;28;20029;-54
2022/01/20 03:56:52;;;;;;;6.25;1.02;;;0.80;99.90;;;;;;5007996;28;20496;-51
2022/01/20 03:59:18;;;;;;;6.30;1.73;;;0.70;99.90;;;;;;5007842;28;20044;-54
2022/01/20 04:01:45;;;;;;;11.70;2.80;;;0.70;99.90;;;;;;5011109;28;20062;-52
2022/01/20 04:04:11;;;;;;;8.32;1.75;;;0.70;99.90;;;;;;4994541;28;20033;-52
2022/01/20 04:06:36;;;;;;;8.63;1.23;;;0.70;99.90;;;;;;5012378;28;20396;-57
2022/01/20 04:09:03;;;;;;;7.93;1.70;;;0.80;99.90;;;;;;5011976;28;20540;-57
2022/01/20 04:11:30;;;;;;;6.22;2.40;;;0.80;99.90;;;;;;5011934;28;20030;-53
2022/01/20 04:13:56;;;;;;;4.07;1.98;;;0.90;99.90;;;;;;4994243;28;20500;-53
2022/01/20 04:16:34;;;;;;;8.15;1.60;;;1.00;99.90;;;;;;5011995;28;20048;-50
2022/01/20 04:19:02;;;;;;;5.85;1.45;;;1.00;99.90;;;;;;5012280;28;20040;-55
2022/01/20 04:21:30;;;;;;;10.38;1.75;;;1.00;99.90;;;;;;5011872;28;20107;-55
2022/01/20 04:23:57;;;;;;;11.30;2.60;;;1.00;99.90;;;;;;5010960;28;20088;-52
2022/01/20 04:26:24;;;;;;;8.63;1.75;;;1.00;99.90;;;;;;5011408;28;20500;-57
2022/01/20 04:28:53;;;;;;;7.75;2.22;;;1.00;99.90;;;;;;5011253;28;20562;-50
2022/01/20 04:31:20;;;;;;;9.18;2.38;;;1.00;99.90;;;;;;5011230;28;20014;-52
2022/01/20 04:33:46;;;;;;;5.10;1.83;;;0.90;99.90;;;;;;5011060;28;20423;-51
2022/01/20 04:36:11;;;;;;;7.07;1.83;;;1.00;99.90;;;;;;4992054;28;20030;-54
2022/01/20 04:38:37;;;;;;;7.93;1.98;;;1.00;99.90;;;;;;5011909;28;20076;-54
2022/01/20 04:41:03;;;;;;;11.63;2.92;;;0.90;99.90;;;;;;5011991;28;20038;-50
2022/01/20 04:43:29;;;;;;;12.30;1.83;;;0.90;99.90;;;;;;5011303;28;20507;-50
2022/01/20 04:46:14;;;;;;;7.82;2.03;;;0.90;99.90;;;;;;5011527;28;20071;-55
2022/01/20 04:49:06;;;;;;;16.58;2.25;;;0.90;99.90;;;;;;5011551;28;20492;-54
2022/01/20 04:57:17;;;;;;;8.50;2.22;;;0.90;99.90;;;;;;5011147;28;20153;-53
2022/01/20 04:59:46;;;;;;;6.03;1.90;;;0.90;99.90;;;;;;5011242;28;20488;-54
2022/01/20 05:02:12;;;;;;;13.38;2.40;;;0.90;99.90;;;;;;5010926;28;20037;-52
2022/01/20 05:04:39;;;;;;;12.85;3.17;;;1.00;99.90;;;;;;5011291;28;20030;-53
2022/01/20 05:07:05;;;;;;;12.80;2.85;;;0.90;99.90;;;;;;5010356;28;20381;-56
2022/01/20 05:09:31;;;;;;;4.72;1.35;;;0.90;99.90;;;;;;5011116;28;20053;-50
2022/01/20 05:12:40;;;;;;;16.80;2.97;;;0.90;99.90;;;;;;5009902;28;20061;-54
2022/01/20 05:14:48;;;;;;;10.48;2.28;;;0.90;99.90;;;;;;5007839;28;20354;-54
2022/01/20 05:17:14;;;;;;;12.63;2.20;;;0.90;99.90;;;;;;5011108;28;20022;-54
2022/01/20 05:19:40;;;;;;;11.48;2.53;;;1.00;99.90;;;;;;5010200;28;20034;-52
2022/01/20 05:22:06;;;;;;;11.63;2.70;;;1.00;99.90;;;;;;5009604;28;20034;-54
2022/01/20 05:24:31;;;;;;;12.02;2.83;;;1.00;99.90;;;;;;4993342;28;20034;-51
2022/01/20 05:26:57;;;;;;;12.43;2.42;;;1.00;99.90;;;;;;5010641;28;20029;-50
2022/01/20 05:29:23;;;;;;;10.90;2.80;;;1.00;99.90;;;;;;5010369;28;20405;-53
2022/01/20 05:31:50;;;;;;;14.00;2.40;;;1.10;99.90;;;;;;5010381;28;20029;-56
2022/01/20 05:34:15;;;;;;;10.38;1.98;;;1.10;99.90;;;;;;5010390;28;20042;-53
2022/01/20 05:36:42;;;;;;;10.50;2.25;;;1.10;99.90;;;;;;5010422;28;20038;-52
2022/01/20 05:39:09;;;;;;;9.48;2.28;;;1.00;99.90;;;;;;5009946;28;20121;-55
2022/01/20 05:41:35;;;;;;;17.52;2.75;;;1.00;99.90;;;;;;5010611;28;20152;-51
2022/01/20 05:44:01;;;;;;;15.68;3.15;;;1.10;99.90;;;;;;4992344;28;20026;-52
2022/01/20 05:46:34;;;;;;;14.85;2.97;;;1.10;99.90;;;;;;5010166;28;20034;-55
2022/01/20 05:49:08;;;;;;;10.52;3.35;;;1.10;99.90;;;;;;5010375;28;20018;-55
2022/01/20 05:51:44;;;;;;;11.52;2.88;;;1.00;99.90;;;;;;5010690;28;20444;-52
2022/01/20 05:54:09;;;;;;;13.65;2.75;;;1.10;99.90;;;;;;4992440;28;20568;-54
2022/01/20 05:56:35;;;;;;;11.63;3.08;;;1.10;99.90;;;;;;5010107;28;20125;-54
2022/01/20 05:59:01;;;;;;;10.18;2.30;;;1.00;99.90;;;;;;5009955;28;20072;-50
2022/01/20 06:01:27;;;;;;;14.70;3.53;;;1.10;99.90;;;;;;5010341;28;20120;-53
2022/01/20 06:03:54;;;;;;;10.07;2.72;;;1.10;99.90;;;;;;4992114;28;20037;-53
2022/01/20 06:06:21;;;;;;;9.50;2.33;;;1.00;99.90;;;;;;5009126;28;20022;-52
2022/01/20 06:08:47;;;;;;;13.82;2.53;;;1.00;99.90;;;;;;5009857;28;20025;-54
2022/01/20 06:11:12;;;;;;;20.23;3.25;;;1.00;99.90;;;;;;5009749;28;20032;-51
2022/01/20 06:13:38;;;;;;;15.05;2.47;;;1.00;99.90;;;;;;5009818;28;20030;-51
2022/01/20 06:16:05;;;;;;;16.98;3.72;;;1.00;99.90;;;;;;5008957;28;20111;-52
2022/01/20 06:18:31;;;;;;;16.73;3.50;;;0.90;99.90;;;;;;5008292;28;20511;-56
2022/01/20 06:20:57;;;;;;;17.52;2.33;;;1.00;99.90;;;;;;5008553;28;20033;-55
2022/01/20 06:23:23;;;;;;;18.23;2.90;;;0.90;99.90;;;;;;5009215;28;20030;-52
2022/01/20 06:25:49;;;;;;;9.90;2.42;;;0.90;99.90;;;;;;5009604;28;20057;-50
2022/01/20 06:28:16;;;;;;;9.95;2.85;;;0.90;99.90;;;;;;5009309;28;20477;-52
2022/01/20 06:30:42;;;;;;;19.30;3.58;;;0.90;99.90;;;;;;5008552;28;20633;-55
2022/01/20 06:33:08;;;;;;;15.27;3.25;;;0.90;99.90;;;;;;5008647;28;20033;-51
2022/01/20 06:35:34;;;;;;;15.77;3.65;;;1.00;99.90;;;;;;5008661;28;20045;-53
2022/01/20 06:37:59;;;;;;;9.20;3.03;;;1.00;99.90;;;;;;4991826;28;20041;-54
2022/01/20 06:40:25;;;;;;;15.63;3.30;;;1.00;99.90;;;;;;5009472;28;20029;-52
2022/01/20 06:42:51;;;;;;;17.15;3.05;;;1.10;99.90;;;;;;5009010;28;20408;-54
2022/01/20 06:45:18;;;;;;;10.13;2.60;;;1.10;99.90;;;;;;5009266;28;20024;-51
2022/01/20 06:47:44;;;;;;;10.18;2.38;;;1.10;99.90;;;;;;5008863;28;20053;-51
2022/01/20 06:50:12;;;;;;;12.63;3.60;;;1.10;99.90;;;;;;5009142;28;20447;-53
2022/01/20 06:52:38;;;;;;;6.28;2.42;;;1.10;99.90;;;;;;5009343;28;20061;-52
2022/01/20 06:55:07;;;;;;;10.82;2.67;;;1.10;99.90;;;;;;5008203;28;20153;-54
2022/01/20 06:57:35;;;;;;;10.55;2.65;;;1.10;99.90;;;;;;5009040;28;20113;-55
2022/01/20 07:00:01;;;;;;;4.78;2.22;;;1.10;99.90;;;;;;4990853;28;20114;-53
2022/01/20 07:02:26;;;;;;;9.70;3.15;;;1.10;99.90;;;;;;5009004;28;20033;-50
2022/01/20 07:04:52;;;;;;;11.07;2.75;;;1.10;99.90;;;;;;5009288;28;20442;-52
2022/01/20 07:07:18;;;;;;;15.40;2.88;;;1.10;99.90;;;;;;5009082;28;20118;-53
2022/01/20 07:09:44;;;;;;;17.38;3.63;;;1.10;99.90;;;;;;5008925;28;20040;-51
2022/01/20 07:12:11;;;;;;;14.82;3.60;;;1.10;99.90;;;;;;5008784;28;20034;-54
2022/01/20 07:14:37;;;;;;;11.48;2.08;;;1.10;99.90;;;;;;5009081;28;20033;-51
2022/01/20 07:17:04;;;;;;;12.60;2.88;;;1.10;99.90;;;;;;5008740;28;20034;-54
2022/01/20 07:19:31;;;;;;;10.23;2.08;;;1.10;99.90;;;;;;5008889;28;20081;-55
2022/01/20 07:21:57;;;;;;;14.23;2.38;;;1.00;99.90;;;;;;5007993;28;20034;-55
2022/01/20 07:24:23;;;;;;;8.20;2.45;;;1.00;99.90;;;;;;5009914;28;20037;-53
2022/01/20 07:26:48;;;;;;;10.15;2.20;;;1.00;99.90;;;;;;4991835;28;20026;-53
2022/01/20 07:29:15;;;;;;;13.73;2.83;;;0.90;99.90;;;;;;4991811;28;20026;-53
2022/01/20 07:31:41;;;;;;;14.23;2.83;;;0.90;99.90;;;;;;5010097;28;20480;-55
2022/01/20 07:34:06;;;;;;;14.52;2.67;;;1.00;99.90;;;;;;4991171;28;20040;-53
2022/01/20 07:36:32;;;;;;;10.38;2.90;;;1.00;99.90;;;;;;5012303;28;20104;-51
2022/01/20 07:38:57;;;;;;;8.57;2.15;;;1.00;99.90;;;;;;5013364;28;20041;-53
2022/01/20 07:41:23;;;;;;;12.75;3.08;;;1.10;99.90;;;;;;5012733;28;20045;-50
2022/01/20 07:43:49;;;;;;;6.88;2.40;;;1.10;99.90;;;;;;5010809;28;20033;-52
2022/01/20 07:46:14;;;;;;;10.32;3.03;;;1.10;99.90;;;;;;5012425;28;20034;-53
2022/01/20 07:48:40;;;;;;;7.97;2.58;;;1.20;99.90;;;;;;5010396;28;20561;-52
2022/01/20 07:51:06;;;;;;;14.32;2.40;;;1.10;99.90;;;;;;5012005;28;20492;-56
2022/01/20 07:53:33;;;;;;;9.10;2.53;;;1.10;99.90;;;;;;5012712;28;20391;-56
2022/01/20 07:55:59;;;;;;;12.32;3.30;;;1.10;99.90;;;;;;5012785;28;20080;-50
2022/01/20 07:58:24;;;;;;;11.00;3.13;;;1.10;99.90;;;;;;5013260;28;20028;-51
2022/01/20 08:00:50;;;;;;;10.68;2.88;;;1.20;99.90;;;;;;5013195;28;20109;-52
2022/01/20 08:03:15;;;;;;;11.60;2.80;;;1.20;99.90;;;;;;5012714;28;20030;-52
2022/01/20 08:05:41;;;;;;;9.00;1.50;;;1.20;99.90;;;;;;5013606;28;20041;-52
2022/01/20 08:08:07;;;;;;;20.15;3.13;;;1.10;99.90;;;;;;4995851;28;20030;-49
2022/01/20 08:10:34;;;;;;;12.32;2.88;;;1.20;99.90;;;;;;5014303;28;20030;-50
2022/01/20 08:13:01;;;;;;;11.70;2.08;;;1.10;99.90;;;;;;5016690;28;20472;-55
2022/01/20 08:15:28;;;;;;;12.35;3.10;;;1.10;99.90;;;;;;4997348;28;20055;-50
2022/01/20 08:17:53;;;;;;;12.13;2.92;;;1.10;99.90;;;;;;5013533;28;20029;-52
2022/01/20 08:20:19;;;;;;;12.32;3.10;;;1.10;99.90;;;;;;5013658;28;20038;-53
2022/01/20 08:22:44;;;;;;;15.23;2.63;;;1.10;99.90;;;;;;5013062;28;20034;-53
2022/01/20 08:25:13;;;;;;;16.00;2.78;;;1.20;99.90;;;;;;5013819;28;20022;-54
2022/01/20 08:27:40;;;;;;;10.45;2.10;;;1.20;99.90;;;;;;4994900;28;20640;-51
2022/01/20 08:30:09;;;;;;;16.67;2.63;;;1.20;99.90;;;;;;5013114;28;20026;-54
2022/01/20 08:32:35;;;;;;;11.02;2.05;;;1.20;99.90;;;;;;5011948;28;20054;-55
2022/01/20 08:35:05;;;;;;;9.98;1.90;;;1.20;99.90;;;;;;5011185;28;20076;-54
2022/01/20 08:37:31;;;;;;;9.50;2.28;;;1.20;99.90;;;;;;5010115;28;20061;-53
2022/01/20 08:39:57;;;;;;;12.63;2.65;;;1.30;99.90;;;;;;5011391;28;20030;-53
2022/01/20 08:42:24;;;;;;;19.52;2.95;;;1.30;99.90;;;;;;5010865;28;20052;-54
2022/01/20 08:44:50;;;;;;;13.13;2.35;;;1.30;99.90;;;;;;5011387;28;20439;-52
2022/01/20 08:47:17;;;;;;;9.70;2.55;;;1.30;99.90;;;;;;5011115;28;20579;-53
2022/01/20 08:49:45;;;;;;;14.50;3.30;;;1.30;99.90;;;;;;4993950;28;20030;-50
2022/01/20 08:52:10;;;;;;;18.77;2.55;;;1.30;99.90;;;;;;5009693;28;20034;-50
2022/01/20 08:54:36;;;;;;;14.00;2.17;;;1.30;99.90;;;;;;5010837;28;20042;-54
2022/01/20 08:57:02;;;;;;;13.93;2.30;;;1.30;99.90;;;;;;5011115;28;20042;-49
2022/01/20 08:59:29;;;;;;;9.00;2.50;;;1.30;99.90;;;;;;5011216;28;20030;-54
2022/01/20 09:01:55;;;;;;;7.72;2.00;;;1.30;99.90;;;;;;5010435;28;20037;-53
2022/01/20 09:04:20;;;;;;;12.93;2.58;;;1.40;99.90;;;;;;5010359;28;20048;-53
2022/01/20 09:06:46;;;;;;;6.82;1.98;;;1.40;99.90;;;;;;5011097;28;20033;-52
2022/01/20 09:09:11;;;;;;;8.85;2.80;;;1.50;99.90;;;;;;5009458;28;20030;-56
2022/01/20 09:11:49;;;;;;;11.13;2.58;;;1.60;99.90;;;;;;5011230;28;20029;-49
2022/01/20 09:16:58;;;;;;;12.70;2.38;;;1.90;99.90;;;;;;5011262;28;20044;-54
2022/01/20 09:19:24;;;;;;;12.68;2.40;;;2.00;99.90;;;;;;5010385;28;20034;-52
2022/01/20 09:21:49;;;;;;;11.25;2.08;;;2.00;99.90;;;;;;5009327;28;20108;-55
2022/01/20 09:24:15;;;;;;;9.20;2.97;;;2.00;99.90;;;;;;5010629;28;20026;-50
2022/01/20 09:26:40;;;;;;;8.95;1.98;;;2.00;99.90;;;;;;5010938;28;20026;-54
2022/01/20 09:29:06;;;;;;;10.10;2.38;;;1.90;99.90;;;;;;5010241;28;20472;-50
2022/01/20 09:31:37;;;;;;;13.43;1.83;;;1.90;99.90;;;;;;5010745;28;20475;-52
2022/01/20 09:34:02;;;;;;;9.55;2.25;;;1.80;99.90;;;;;;5009719;28;20120;-51
2022/01/20 09:36:28;;;;;;;8.82;2.00;;;1.80;99.90;;;;;;4993072;28;20196;-51
2022/01/20 09:38:53;;;;;;;6.10;2.38;;;1.80;99.90;;;;;;5010411;28;20041;-49
2022/01/20 09:41:19;;;;;;;8.85;1.73;;;1.80;99.90;;;;;;5010721;28;20025;-52
2022/01/20 09:43:45;;;;;;;5.43;1.70;;;1.80;99.90;;;;;;5010029;28;20053;-53
2022/01/20 09:46:10;;;;;;;11.45;2.00;;;1.80;99.90;;;;;;5009970;28;20116;-53
2022/01/20 09:48:36;;;;;;;7.00;1.35;;;1.80;99.90;;;;;;5009565;28;20029;-50
2022/01/20 09:51:03;;;;;;;11.07;1.50;;;1.70;99.90;;;;;;5010132;28;20025;-52
2022/01/20 09:53:29;;;;;;;13.23;2.40;;;1.70;99.90;;;;;;5010216;28;20029;-49
2022/01/20 09:55:56;;;;;;;5.35;1.38;;;1.60;99.90;;;;;;5010240;28;20030;-52
2022/01/20 09:58:23;;;;;;;12.07;2.15;;;1.60;99.90;;;;;;5009475;28;20053;-50
2022/01/20 10:00:49;;;;;;;9.05;2.35;;;1.60;99.90;;;;;;5009624;28;20087;-50
2022/01/20 10:03:17;;;;;;;13.38;1.83;;;1.70;99.90;;;;;;5009140;28;20480;-50
2022/01/20 10:05:49;;;;;;;7.45;2.13;;;1.90;99.90;;;;;;5010056;28;20116;-53
2022/01/20 10:08:23;;;;;;;11.45;2.30;;;2.00;99.90;;;;;;5009736;28;20544;-50
2022/01/20 10:10:55;;;;;;;7.85;1.65;;;2.00;99.90;;;;;;5009255;28;20033;-52
2022/01/20 10:13:24;;;;;;;7.90;2.30;;;2.00;99.90;;;;;;5009150;28;20519;-48
2022/01/20 10:15:59;;;;;;;11.38;2.42;;;1.90;99.90;;;;;;4992337;28;20065;-51
2022/01/20 10:18:26;;;;;;;8.52;2.28;;;1.70;99.90;;;;;;5008241;28;20038;-52
2022/01/20 10:20:53;;;;;;;9.80;1.83;;;1.50;99.90;;;;;;4991093;28;20234;-54
2022/01/20 10:23:39;;;;;;;5.10;1.63;;;1.40;99.90;;;;;;5006658;28;20113;-53
2022/01/20 10:26:11;;;;;;;5.63;1.23;;;1.30;99.90;;;;;;5008220;28;20033;-49
2022/01/20 10:28:46;;;;;;;6.25;1.65;;;1.30;99.90;;;;;;5007825;28;20026;-50
2022/01/20 10:31:12;;;;;;;5.05;1.15;;;1.20;99.90;;;;;;5007853;28;20042;-53
2022/01/20 10:33:42;;;;;;;8.50;1.40;;;1.10;99.90;;;;;;5008554;28;20420;-52
2022/01/20 10:36:09;;;;;;;4.07;0.88;;;1.00;99.90;;;;;;5007790;28;20042;-50
2022/01/20 10:38:34;;;;;;;1.63;0.60;;;1.00;99.90;;;;;;5008237;28;20459;-49
2022/01/20 10:41:00;;;;;;;4.30;1.25;;;1.00;99.90;;;;;;5009610;28;20029;-49
2022/01/20 10:43:33;;;;;;;1.88;0.93;;;1.00;99.90;;;;;;5008935;28;20053;-54
2022/01/20 10:46:06;;;;;;;4.50;1.40;;;1.10;99.90;;;;;;5008767;28;20069;-53
2022/01/20 10:48:32;;;;;;;6.55;0.90;;;1.20;99.90;;;;;;5009013;28;20427;-51
2022/01/20 10:50:58;;;;;;;4.72;0.90;;;1.40;99.90;;;;;;5008889;28;20403;-53
2022/01/20 10:53:24;;;;;;;2.65;0.85;;;1.40;99.90;;;;;;5007260;28;20018;-57
2022/01/20 10:55:51;;;;;;;2.72;0.63;;;1.30;99.90;;;;;;5007988;28;20033;-54
2022/01/20 10:58:22;;;;;;;4.30;1.00;;;1.30;99.90;;;;;;5007361;28;20033;-52
2022/01/20 11:00:53;;;;;;;3.80;1.02;;;1.30;99.90;;;;;;5005970;28;20026;-52
2022/01/20 11:03:20;;;;;;;11.43;1.60;;;1.40;99.90;;;;;;5007564;28;20446;-54
2022/01/20 11:05:50;;;;;;;9.38;1.67;;;1.60;99.90;;;;;;5008676;28;20080;-52
2022/01/20 11:08:17;;;;;;;6.53;1.63;;;1.70;99.90;;;;;;5008738;28;20037;-52
2022/01/20 11:10:43;;;;;;;6.18;1.25;;;1.90;99.90;;;;;;5008306;28;20072;-51
2022/01/20 11:13:15;;;;;;;6.80;1.88;;;2.00;99.90;;;;;;5009178;28;20037;-49
2022/01/20 11:15:41;;;;;;;4.40;2.05;;;2.00;99.90;;;;;;5008425;28;20037;-52
2022/01/20 11:18:11;;;;;;;6.85;1.52;;;2.10;99.90;;;;;;5008421;28;20072;-55
2022/01/20 11:20:56;;;;;;;9.40;2.08;;;2.20;99.90;;;;;;5008384;28;20057;-53
2022/01/20 11:23:21;;;;;;;5.97;2.40;;;2.30;99.90;;;;;;5008054;28;20558;-54
2022/01/20 11:25:47;;;;;;;6.45;2.22;;;2.50;99.90;;;;;;5008047;28;20061;-50
2022/01/20 11:28:20;;;;;;;4.47;1.48;;;2.60;99.90;;;;;;5008759;28;20025;-54
2022/01/20 11:30:57;;;;;;;4.10;1.40;;;2.70;99.90;;;;;;5008989;28;20018;-50
2022/01/20 11:33:42;;;;;;;12.52;1.52;;;2.70;99.90;;;;;;5008372;28;20026;-56
2022/01/20 11:36:22;;;;;;;8.02;1.42;;;2.70;99.90;;;;;;5008768;28;20486;-53
2022/01/20 11:38:50;;;;;;;5.22;2.00;;;2.60;99.90;;;;;;5008486;28;20088;-51
2022/01/20 11:41:17;;;;;;;10.00;2.05;;;2.60;99.90;;;;;;5008003;28;20095;-53
2022/01/20 11:43:45;;;;;;;11.45;2.15;;;2.60;99.90;;;;;;5008400;28;20076;-49
2022/01/20 11:46:16;;;;;;;7.53;2.20;;;2.50;99.90;;;;;;5007741;28;20026;-51
2022/01/20 11:49:09;;;;;;;7.93;1.60;;;2.50;99.90;;;;;;5008440;28;20018;-55
2022/01/20 11:51:43;;;;;;;10.30;1.80;;;2.50;99.90;;;;;;5006481;28;20026;-50
2022/01/20 11:54:11;;;;;;;4.78;1.52;;;2.50;99.90;;;;;;4989321;28;20037;-52
2022/01/20 11:56:38;;;;;;;15.77;2.20;;;2.60;99.90;;;;;;5007045;28;20530;-48
2022/01/20 11:59:05;;;;;;;7.40;2.05;;;2.60;99.90;;;;;;5007336;28;20088;-52
2022/01/20 12:01:47;;;;;;;10.25;1.65;;;2.60;99.90;;;;;;5006249;28;20440;-52
2022/01/20 12:04:13;;;;;;;8.05;2.15;;;2.70;99.90;;;;;;5006167;28;20401;-53
2022/01/20 12:06:43;;;;;;;10.82;2.55;;;2.70;99.90;;;;;;5007199;28;20022;-55
2022/01/20 12:09:09;;;;;;;9.35;2.15;;;2.70;99.90;;;;;;4988767;28;20018;-52
2022/01/20 12:11:47;;;;;;;5.40;1.50;;;2.70;99.90;;;;;;5007299;28;20096;-50
2022/01/20 12:14:24;;;;;;;9.30;2.58;;;2.70;99.90;;;;;;5004652;28;20702;-51
2022/01/20 12:16:50;;;;;;;11.38;1.80;;;2.60;99.90;;;;;;5006473;28;20030;-50
2022/01/20 12:19:16;;;;;;;4.07;1.58;;;2.60;99.90;;;;;;5006408;28;20109;-49
2022/01/20 12:21:48;;;;;;;11.07;3.05;;;2.70;99.90;;;;;;5006652;28;20430;-53
2022/01/20 12:24:13;;;;;;;6.18;1.23;;;2.70;99.90;;;;;;5009954;28;20471;-55
2022/01/20 12:26:39;;;;;;;11.52;1.98;;;2.70;99.90;;;;;;5009905;28;20022;-54
2022/01/20 12:29:07;;;;;;;5.97;1.48;;;2.70;99.90;;;;;;5011419;28;20356;-51
2022/01/20 12:31:44;;;;;;;7.07;2.13;;;2.70;99.90;;;;;;5010638;28;20030;-51
2022/01/20 12:34:12;;;;;;;12.25;2.08;;;2.60;99.90;;;;;;5009809;28;20044;-51
2022/01/20 12:36:39;;;;;;;13.23;2.42;;;2.60;99.90;;;;;;5008259;28;20036;-53
2022/01/20 12:39:06;;;;;;;6.00;2.20;;;2.40;99.90;;;;;;5008910;28;20080;-54
2022/01/20 12:41:32;;;;;;;13.95;2.60;;;2.40;99.90;;;;;;4993594;28;20096;-52
2022/01/20 12:44:08;;;;;;;6.43;2.20;;;2.10;99.90;;;;;;5010083;28;20045;-48
2022/01/20 12:46:37;;;;;;;8.30;1.80;;;1.90;99.90;;;;;;5009335;28;20041;-50
2022/01/20 12:49:09;;;;;;;9.30;2.03;;;1.60;99.90;;;;;;5010828;28;20392;-53
2022/01/20 12:51:51;;;;;;;6.47;1.42;;;1.40;99.90;;;;;;5009990;28;20028;-52
2022/01/20 12:54:27;;;;;;;6.40;1.80;;;1.20;99.90;;;;;;5009687;28;20274;-50
2022/01/20 12:57:14;;;;;;;8.98;2.25;;;1.20;99.90;;;;;;5008313;28;20724;-51
2022/01/20 12:59:42;;;;;;;5.43;1.48;;;1.20;99.90;;;;;;4992603;28;20539;-49
2022/01/20 13:02:10;;;;;;;4.97;1.10;;;1.30;99.90;;;;;;5008626;28;20288;-49
2022/01/20 13:04:37;;;;;;;4.55;1.13;;;1.30;99.90;;;;;;4993529;28;20188;-50
2022/01/20 13:07:05;;;;;;;2.42;0.80;;;1.40;99.90;;;;;;5010723;28;20030;-52
2022/01/20 13:09:43;;;;;;;3.17;1.00;;;1.30;99.90;;;;;;5010705;28;20500;-56
2022/01/20 13:12:11;;;;;;;7.43;1.58;;;1.20;99.90;;;;;;5010095;28;20037;-55
2022/01/20 13:14:43;;;;;;;3.70;0.82;;;1.20;99.90;;;;;;5011182;28;20373;-53
2022/01/20 13:17:18;;;;;;;5.20;0.77;;;1.20;99.90;;;;;;5009517;28;20138;-54
2022/01/20 13:19:46;;;;;;;4.68;1.40;;;1.10;99.90;;;;;;5009218;28;20037;-52
2022/01/20 13:22:43;;;;;;;3.67;1.83;;;1.00;99.90;;;;;;4993277;28;20112;-55
2022/01/20 13:25:17;;;;;;;3.00;1.42;;;0.90;99.90;;;;;;5008102;28;20026;-49
2022/01/20 13:28:02;;;;;;;3.00;1.17;;;0.90;99.90;;;;;;5010178;28;20034;-52
2022/01/20 13:30:39;;;;;;;5.45;1.17;;;0.90;99.90;;;;;;5011087;28;20033;-50
2022/01/20 13:33:14;;;;;;;4.82;1.20;;;0.80;99.90;;;;;;5009094;28;20105;-52
2022/01/20 13:35:42;;;;;;;4.85;1.20;;;0.90;99.90;;;;;;4992960;28;20030;-53
2022/01/20 13:38:08;;;;;;;2.72;1.25;;;1.00;99.90;;;;;;5009195;28;20049;-55
2022/01/20 13:40:37;;;;;;;5.63;1.42;;;1.10;99.90;;;;;;5010526;28;20022;-53
2022/01/20 13:46:04;;;;;;;2.78;0.90;;;1.30;99.90;;;;;;5009030;28;20654;-51
2022/01/20 13:48:32;;;;;;;6.68;1.70;;;1.40;99.90;;;;;;5009354;28;20045;-50
2022/01/20 13:51:00;;;;;;;2.45;0.77;;;1.40;99.90;;;;;;5009353;28;20026;-54
2022/01/20 13:53:27;;;;;;;5.25;1.02;;;1.40;99.90;;;;;;5010171;28;20504;-49
2022/01/20 13:55:56;;;;;;;5.45;1.48;;;1.40;99.90;;;;;;5009241;28;20128;-50
2022/01/20 13:58:24;;;;;;;4.57;1.40;;;1.30;99.90;;;;;;5009752;28;20109;-50
2022/01/20 14:00:50;;;;;;;6.03;1.23;;;1.40;99.90;;;;;;5009760;28;20029;-52
2022/01/20 14:03:16;;;;;;;4.55;1.13;;;1.40;99.90;;;;;;5009061;28;20026;-54
2022/01/20 14:05:41;;;;;;;9.13;2.35;;;1.40;99.90;;;;;;5009881;28;20100;-52